sensor_id;sensor_type;location;lat;lon;timestamp;pressure;altitude;pressure_sealevel;temperature;humidity
30302;BME280;17111;52.130;5.028;2024-02-21T00:00:07;102241.41;;;16.27;59.17
30302;BME280;17111;52.130;5.028;2024-02-21T00:02:33;102235.13;;;16.28;59.65
30302;BME280;17111;52.130;5.028;2024-02-21T00:05:00;102234.22;;;16.28;59.79
30302;BME280;17111;52.130;5.028;2024-02-21T00:07:27;102228.88;;;16.28;59.89
30302;BME280;17111;52.130;5.028;2024-02-21T00:09:53;102220.00;;;16.27;59.38
30302;BME280;17111;52.130;5.028;2024-02-21T00:12:20;102221.81;;;16.27;59.00
30302;BME280;17111;52.130;5.028;2024-02-21T00:14:47;102211.97;;;16.27;59.63
30302;BME280;17111;52.130;5.028;2024-02-21T00:17:13;102212.09;;;16.26;59.31
30302;BME280;17111;52.130;5.028;2024-02-21T00:19:40;102214.66;;;16.27;59.47
30302;BME280;17111;52.130;5.028;2024-02-21T00:22:06;102222.69;;;16.27;59.47
30302;BME280;17111;52.130;5.028;2024-02-21T00:24:34;102211.97;;;16.27;59.05
30302;BME280;17111;52.130;5.028;2024-02-21T00:27:01;102206.63;;;16.27;59.25
30302;BME280;17111;52.130;5.028;2024-02-21T00:29:27;102192.41;;;16.27;59.30
30302;BME280;17111;52.130;5.028;2024-02-21T00:31:54;102190.56;;;16.27;59.30
30302;BME280;17111;52.130;5.028;2024-02-21T00:34:21;102206.75;;;16.26;59.52
30302;BME280;17111;52.130;5.028;2024-02-21T00:36:47;102226.31;;;16.26;59.36
30302;BME280;17111;52.130;5.028;2024-02-21T00:39:14;102219.06;;;16.28;59.53
30302;BME280;17111;52.130;5.028;2024-02-21T00:41:41;102206.63;;;16.27;59.53
30302;BME280;17111;52.130;5.028;2024-02-21T00:44:07;102207.47;;;16.28;59.38
30302;BME280;17111;52.130;5.028;2024-02-21T00:46:34;102213.72;;;16.28;59.36
30302;BME280;17111;52.130;5.028;2024-02-21T00:49:01;102213.81;;;16.27;59.84
30302;BME280;17111;52.130;5.028;2024-02-21T00:51:27;102220.00;;;16.27;59.33
30302;BME280;17111;52.130;5.028;2024-02-21T00:53:54;102217.25;;;16.29;59.36
30302;BME280;17111;52.130;5.028;2024-02-21T00:56:21;102212.84;;;16.28;59.98
30302;BME280;17111;52.130;5.028;2024-02-21T00:58:47;102219.91;;;16.29;59.45
30302;BME280;17111;52.130;5.028;2024-02-21T01:01:24;102229.75;;;16.28;59.04
30302;BME280;17111;52.130;5.028;2024-02-21T01:03:51;102220.78;;;16.29;60.32
30302;BME280;17111;52.130;5.028;2024-02-21T01:06:20;102218.94;;;16.30;59.69
30302;BME280;17111;52.130;5.028;2024-02-21T01:08:47;102220.78;;;16.29;59.46
30302;BME280;17111;52.130;5.028;2024-02-21T01:11:15;102217.25;;;16.29;59.62
30302;BME280;17111;52.130;5.028;2024-02-21T01:13:41;102204.72;;;16.29;59.65
30302;BME280;17111;52.130;5.028;2024-02-21T01:16:08;102201.91;;;16.31;59.74
30302;BME280;17111;52.130;5.028;2024-02-21T01:18:37;102199.38;;;16.29;60.14
30302;BME280;17111;52.130;5.028;2024-02-21T01:21:07;102189.50;;;16.30;60.12
30302;BME280;17111;52.130;5.028;2024-02-21T01:23:34;102188.66;;;16.29;59.94
30302;BME280;17111;52.130;5.028;2024-02-21T01:26:02;102183.31;;;16.29;59.72
30302;BME280;17111;52.130;5.028;2024-02-21T01:28:29;102184.16;;;16.30;59.52
30302;BME280;17111;52.130;5.028;2024-02-21T01:30:57;102169.94;;;16.29;60.07
30302;BME280;17111;52.130;5.028;2024-02-21T01:33:24;102173.47;;;16.30;59.53
30302;BME280;17111;52.130;5.028;2024-02-21T01:35:50;102170.78;;;16.30;59.82
30302;BME280;17111;52.130;5.028;2024-02-21T01:38:17;102172.63;;;16.29;59.82
30302;BME280;17111;52.130;5.028;2024-02-21T01:40:44;102167.13;;;16.31;60.02
30302;BME280;17111;52.130;5.028;2024-02-21T01:43:19;102160.22;;;16.28;59.92
30302;BME280;17111;52.130;5.028;2024-02-21T01:45:49;102161.91;;;16.29;59.42
30302;BME280;17111;52.130;5.028;2024-02-21T01:48:17;102157.28;;;16.32;59.81
30302;BME280;17111;52.130;5.028;2024-02-21T01:50:45;102152.06;;;16.30;59.58
30302;BME280;17111;52.130;5.028;2024-02-21T01:53:14;102148.53;;;16.29;59.64
30302;BME280;17111;52.130;5.028;2024-02-21T01:55:45;102154.63;;;16.32;59.81
30302;BME280;17111;52.130;5.028;2024-02-21T01:58:16;102154.72;;;16.30;60.40
30302;BME280;17111;52.130;5.028;2024-02-21T02:00:44;102152.78;;;16.32;60.51
30302;BME280;17111;52.130;5.028;2024-02-21T02:03:12;102151.00;;;16.33;59.56
30302;BME280;17111;52.130;5.028;2024-02-21T02:05:46;102149.25;;;16.32;60.01
30302;BME280;17111;52.130;5.028;2024-02-21T02:08:20;102136.00;;;16.30;59.46
30302;BME280;17111;52.130;5.028;2024-02-21T02:10:50;102137.72;;;16.31;59.52
30302;BME280;17111;52.130;5.028;2024-02-21T02:13:17;102140.38;;;16.31;59.45
30302;BME280;17111;52.130;5.028;2024-02-21T02:15:45;102130.53;;;16.32;59.93
30302;BME280;17111;52.130;5.028;2024-02-21T02:18:13;102129.69;;;16.31;59.51
30302;BME280;17111;52.130;5.028;2024-02-21T02:20:40;102122.50;;;16.32;59.94
30302;BME280;17111;52.130;5.028;2024-02-21T02:23:12;102121.66;;;16.31;59.98
30302;BME280;17111;52.130;5.028;2024-02-21T02:25:40;102125.19;;;16.32;60.38
30302;BME280;17111;52.130;5.028;2024-02-21T02:28:07;102125.19;;;16.32;60.23
30302;BME280;17111;52.130;5.028;2024-02-21T02:30:37;102116.31;;;16.31;60.55
30302;BME280;17111;52.130;5.028;2024-02-21T02:33:04;102120.81;;;16.31;59.96
30302;BME280;17111;52.130;5.028;2024-02-21T02:35:32;102118.00;;;16.32;59.65
30302;BME280;17111;52.130;5.028;2024-02-21T02:37:59;102118.97;;;16.31;60.44
30302;BME280;17111;52.130;5.028;2024-02-21T02:40:25;102121.66;;;16.31;60.32
30302;BME280;17111;52.130;5.028;2024-02-21T02:42:52;102116.31;;;16.31;59.99
30302;BME280;17111;52.130;5.028;2024-02-21T02:45:22;102110.94;;;16.31;59.91
30302;BME280;17111;52.130;5.028;2024-02-21T02:47:50;102107.44;;;16.31;60.25
30302;BME280;17111;52.130;5.028;2024-02-21T02:50:16;102100.38;;;16.29;59.80
30302;BME280;17111;52.130;5.028;2024-02-21T02:52:43;102104.75;;;16.31;59.94
30302;BME280;17111;52.130;5.028;2024-02-21T02:55:10;102096.84;;;16.29;59.53
30302;BME280;17111;52.130;5.028;2024-02-21T02:57:36;102092.44;;;16.28;59.77
30302;BME280;17111;52.130;5.028;2024-02-21T03:00:04;102096.84;;;16.29;60.17
30302;BME280;17111;52.130;5.028;2024-02-21T03:02:31;102098.56;;;16.30;59.99
30302;BME280;17111;52.130;5.028;2024-02-21T03:04:57;102090.66;;;16.28;59.35
30302;BME280;17111;52.130;5.028;2024-02-21T03:07:25;102082.63;;;16.28;59.21
30302;BME280;17111;52.130;5.028;2024-02-21T03:09:52;102087.97;;;16.28;59.95
30302;BME280;17111;52.130;5.028;2024-02-21T03:12:19;102076.38;;;16.28;59.71
30302;BME280;17111;52.130;5.028;2024-02-21T03:14:50;102072.88;;;16.27;59.39
30302;BME280;17111;52.130;5.028;2024-02-21T03:17:17;102071.03;;;16.28;59.64
30302;BME280;17111;52.130;5.028;2024-02-21T03:19:44;102064.00;;;16.27;59.86
30302;BME280;17111;52.130;5.028;2024-02-21T03:22:10;102062.16;;;16.27;59.82
30302;BME280;17111;52.130;5.028;2024-02-21T03:24:37;102054.13;;;16.27;60.22
30302;BME280;17111;52.130;5.028;2024-02-21T03:27:03;102048.78;;;16.27;60.08
30302;BME280;17111;52.130;5.028;2024-02-21T03:29:30;102036.38;;;16.26;59.49
30302;BME280;17111;52.130;5.028;2024-02-21T03:31:57;102025.69;;;16.26;59.48
30302;BME280;17111;52.130;5.028;2024-02-21T03:34:23;102035.41;;;16.27;60.28
30302;BME280;17111;52.130;5.028;2024-02-21T03:36:50;102030.91;;;16.28;59.61
30302;BME280;17111;52.130;5.028;2024-02-21T03:39:17;102024.72;;;16.27;59.91
30302;BME280;17111;52.130;5.028;2024-02-21T03:41:43;102025.69;;;16.26;60.06
30302;BME280;17111;52.130;5.028;2024-02-21T03:44:10;102028.34;;;16.26;60.01
30302;BME280;17111;52.130;5.028;2024-02-21T03:46:36;102027.50;;;16.26;60.27
30302;BME280;17111;52.130;5.028;2024-02-21T03:49:03;102023.00;;;16.26;59.51
30302;BME280;17111;52.130;5.028;2024-02-21T03:51:30;102027.50;;;16.26;59.05
30302;BME280;17111;52.130;5.028;2024-02-21T03:53:56;102022.16;;;16.26;60.07
30302;BME280;17111;52.130;5.028;2024-02-21T03:56:23;102020.34;;;16.26;59.41
30302;BME280;17111;52.130;5.028;2024-02-21T03:58:50;102021.31;;;16.25;59.98
30302;BME280;17111;52.130;5.028;2024-02-21T04:01:16;102023.13;;;16.25;59.95
30302;BME280;17111;52.130;5.028;2024-02-21T04:03:44;102027.50;;;16.26;59.71
30302;BME280;17111;52.130;5.028;2024-02-21T04:06:10;102035.66;;;16.24;59.09
30302;BME280;17111;52.130;5.028;2024-02-21T04:08:39;102020.56;;;16.23;59.97
30302;BME280;17111;52.130;5.028;2024-02-21T04:11:05;102012.53;;;16.23;59.56
30302;BME280;17111;52.130;5.028;2024-02-21T04:13:32;102003.56;;;16.24;59.56
30302;BME280;17111;52.130;5.028;2024-02-21T04:15:59;101997.31;;;16.24;59.53
30302;BME280;17111;52.130;5.028;2024-02-21T04:18:27;102000.97;;;16.23;59.72
30302;BME280;17111;52.130;5.028;2024-02-21T04:20:54;102009.84;;;16.23;59.83
30302;BME280;17111;52.130;5.028;2024-02-21T04:23:20;102000.13;;;16.22;59.53
30302;BME280;17111;52.130;5.028;2024-02-21T04:25:47;102004.63;;;16.22;59.70
30302;BME280;17111;52.130;5.028;2024-02-21T04:28:13;102008.16;;;16.22;59.46
30302;BME280;17111;52.130;5.028;2024-02-21T04:30:40;102008.16;;;16.22;59.47
30302;BME280;17111;52.130;5.028;2024-02-21T04:33:07;102010.81;;;16.22;59.34
30302;BME280;17111;52.130;5.028;2024-02-21T04:35:36;102003.78;;;16.21;59.36
30302;BME280;17111;52.130;5.028;2024-02-21T04:38:02;101994.91;;;16.21;59.31
30302;BME280;17111;52.130;5.028;2024-02-21T04:40:30;101993.16;;;16.20;59.33
30302;BME280;17111;52.130;5.028;2024-02-21T04:42:57;101986.97;;;16.19;59.25
30302;BME280;17111;52.130;5.028;2024-02-21T04:45:24;101994.06;;;16.20;60.22
30302;BME280;17111;52.130;5.028;2024-02-21T04:47:50;101986.97;;;16.19;59.33
30302;BME280;17111;52.130;5.028;2024-02-21T04:50:17;101977.25;;;16.18;59.43
30302;BME280;17111;52.130;5.028;2024-02-21T04:52:44;101973.72;;;16.18;59.41
30302;BME280;17111;52.130;5.028;2024-02-21T04:55:10;101964.94;;;16.16;59.27
30302;BME280;17111;52.130;5.028;2024-02-21T04:57:37;101965.81;;;16.16;59.96
30302;BME280;17111;52.130;5.028;2024-02-21T05:00:04;101964.94;;;16.16;59.21
30302;BME280;17111;52.130;5.028;2024-02-21T05:02:31;101971.19;;;16.16;58.78
30302;BME280;17111;52.130;5.028;2024-02-21T05:04:58;101976.63;;;16.15;60.12
30302;BME280;17111;52.130;5.028;2024-02-21T05:07:25;101972.13;;;16.15;59.68
30302;BME280;17111;52.130;5.028;2024-02-21T05:09:52;101954.38;;;16.14;59.39
30302;BME280;17111;52.130;5.028;2024-02-21T05:12:19;101957.03;;;16.14;59.30
30302;BME280;17111;52.130;5.028;2024-02-21T05:14:47;101961.41;;;16.15;59.56
30302;BME280;17111;52.130;5.028;2024-02-21T05:17:14;101948.16;;;16.14;60.00
30302;BME280;17111;52.130;5.028;2024-02-21T05:19:41;101947.31;;;16.13;59.58
30302;BME280;17111;52.130;5.028;2024-02-21T05:22:08;101945.63;;;16.12;59.85
30302;BME280;17111;52.130;5.028;2024-02-21T05:24:35;101940.28;;;16.12;59.12
30302;BME280;17111;52.130;5.028;2024-02-21T05:27:02;101931.38;;;16.12;58.84
30302;BME280;17111;52.130;5.028;2024-02-21T05:29:29;101929.56;;;16.12;59.45
30302;BME280;17111;52.130;5.028;2024-02-21T05:31:56;101927.84;;;16.11;59.49
30302;BME280;17111;52.130;5.028;2024-02-21T05:34:24;101922.50;;;16.11;59.87
30302;BME280;17111;52.130;5.028;2024-02-21T05:36:54;101916.31;;;16.11;58.59
30302;BME280;17111;52.130;5.028;2024-02-21T05:39:21;101904.75;;;16.10;58.63
30302;BME280;17111;52.130;5.028;2024-02-21T05:41:49;101899.41;;;16.10;59.71
30302;BME280;17111;52.130;5.028;2024-02-21T05:44:16;101902.94;;;16.11;59.11
30302;BME280;17111;52.130;5.028;2024-02-21T05:46:43;101893.22;;;16.10;58.68
30302;BME280;17111;52.130;5.028;2024-02-21T05:49:10;101889.56;;;16.11;59.54
30302;BME280;17111;52.130;5.028;2024-02-21T05:51:37;101880.81;;;16.09;59.40
30302;BME280;17111;52.130;5.028;2024-02-21T05:54:03;101882.50;;;16.10;59.27
30302;BME280;17111;52.130;5.028;2024-02-21T05:56:30;101887.00;;;16.09;58.99
30302;BME280;17111;52.130;5.028;2024-02-21T05:58:56;101887.00;;;16.09;59.46
30302;BME280;17111;52.130;5.028;2024-02-21T06:01:24;101874.63;;;16.08;59.46
30302;BME280;17111;52.130;5.028;2024-02-21T06:03:51;101880.81;;;16.09;59.01
30302;BME280;17111;52.130;5.028;2024-02-21T06:06:17;101874.63;;;16.08;58.43
30302;BME280;17111;52.130;5.028;2024-02-21T06:08:44;101871.94;;;16.08;58.92
30302;BME280;17111;52.130;5.028;2024-02-21T06:11:10;101865.72;;;16.08;58.53
30302;BME280;17111;52.130;5.028;2024-02-21T06:13:40;101864.84;;;16.07;59.40
30302;BME280;17111;52.130;5.028;2024-02-21T06:16:07;101873.72;;;16.08;58.42
30302;BME280;17111;52.130;5.028;2024-02-21T06:18:35;101866.69;;;16.07;58.66
30302;BME280;17111;52.130;5.028;2024-02-21T06:21:04;101870.34;;;16.06;59.41
30302;BME280;17111;52.130;5.028;2024-02-21T06:23:31;101877.50;;;16.05;58.32
30302;BME280;17111;52.130;5.028;2024-02-21T06:25:57;101874.84;;;16.05;58.40
30302;BME280;17111;52.130;5.028;2024-02-21T06:28:24;101880.19;;;16.05;59.25
30302;BME280;17111;52.130;5.028;2024-02-21T06:30:51;101886.50;;;16.04;58.94
30302;BME280;17111;52.130;5.028;2024-02-21T06:33:17;101889.19;;;16.04;59.26
30302;BME280;17111;52.130;5.028;2024-02-21T06:35:44;101883.72;;;16.06;59.36
30302;BME280;17111;52.130;5.028;2024-02-21T06:38:13;101885.53;;;16.05;58.75
30302;BME280;17111;52.130;5.028;2024-02-21T06:40:42;101883.84;;;16.04;58.99
30302;BME280;17111;52.130;5.028;2024-02-21T06:43:08;101872.25;;;16.03;59.00
30302;BME280;17111;52.130;5.028;2024-02-21T06:45:35;101878.59;;;16.02;59.43
30302;BME280;17111;52.130;5.028;2024-02-21T06:48:02;101868.72;;;16.03;58.97
30302;BME280;17111;52.130;5.028;2024-02-21T06:50:29;101871.41;;;16.03;58.45
30302;BME280;17111;52.130;5.028;2024-02-21T06:52:55;101871.41;;;16.03;58.26
30302;BME280;17111;52.130;5.028;2024-02-21T06:55:22;101868.88;;;16.01;59.04
30302;BME280;17111;52.130;5.028;2024-02-21T06:57:49;101860.72;;;16.03;58.51
30302;BME280;17111;52.130;5.028;2024-02-21T07:00:16;101861.69;;;16.02;58.61
30302;BME280;17111;52.130;5.028;2024-02-21T07:02:43;101859.00;;;16.02;58.11
30302;BME280;17111;52.130;5.028;2024-02-21T07:05:10;101851.97;;;16.01;58.82
30302;BME280;17111;52.130;5.028;2024-02-21T07:07:36;101851.13;;;16.00;58.31
30302;BME280;17111;52.130;5.028;2024-02-21T07:10:04;101848.44;;;16.00;58.53
30302;BME280;17111;52.130;5.028;2024-02-21T07:12:31;101838.69;;;15.99;58.90
30302;BME280;17111;52.130;5.028;2024-02-21T07:14:57;101846.72;;;15.99;59.13
30302;BME280;17111;52.130;5.028;2024-02-21T07:17:24;101836.88;;;16.00;59.25
30302;BME280;17111;52.130;5.028;2024-02-21T07:19:51;101833.34;;;15.99;59.28
30302;BME280;17111;52.130;5.028;2024-02-21T07:22:18;101837.00;;;15.98;58.83
30302;BME280;17111;52.130;5.028;2024-02-21T07:24:44;101831.88;;;15.95;58.58
30302;BME280;17111;52.130;5.028;2024-02-21T07:27:14;101822.03;;;15.96;58.16
30302;BME280;17111;52.130;5.028;2024-02-21T07:29:41;101816.69;;;15.96;58.35
30302;BME280;17111;52.130;5.028;2024-02-21T07:32:08;101811.34;;;15.96;58.32
30302;BME280;17111;52.130;5.028;2024-02-21T07:34:35;101797.13;;;15.95;58.75
30302;BME280;17111;52.130;5.028;2024-02-21T07:37:01;101802.47;;;15.95;58.91
30302;BME280;17111;52.130;5.028;2024-02-21T07:39:28;101798.84;;;15.96;58.26
30302;BME280;17111;52.130;5.028;2024-02-21T07:41:54;101785.47;;;15.96;58.65
30302;BME280;17111;52.130;5.028;2024-02-21T07:44:21;101795.28;;;15.96;58.39
30302;BME280;17111;52.130;5.028;2024-02-21T07:46:47;101789.84;;;15.97;58.49
30302;BME280;17111;52.130;5.028;2024-02-21T07:49:14;101781.91;;;15.96;58.75
30302;BME280;17111;52.130;5.028;2024-02-21T07:51:41;101772.97;;;15.97;58.92
30302;BME280;17111;52.130;5.028;2024-02-21T07:54:08;101781.81;;;15.97;58.68
30302;BME280;17111;52.130;5.028;2024-02-21T07:56:39;101782.69;;;15.98;57.79
30302;BME280;17111;52.130;5.028;2024-02-21T07:59:06;101778.31;;;15.97;58.00
30302;BME280;17111;52.130;5.028;2024-02-21T08:01:32;101776.47;;;15.97;58.10
30302;BME280;17111;52.130;5.028;2024-02-21T08:03:59;101771.97;;;15.98;58.62
30302;BME280;17111;52.130;5.028;2024-02-21T08:06:26;101769.19;;;15.99;58.40
30302;BME280;17111;52.130;5.028;2024-02-21T08:08:52;101770.03;;;16.00;58.62
30302;BME280;17111;52.130;5.028;2024-02-21T08:11:19;101772.59;;;16.01;57.80
30302;BME280;17111;52.130;5.028;2024-02-21T08:13:46;101765.56;;;16.00;57.94
30302;BME280;17111;52.130;5.028;2024-02-21T08:16:13;101761.06;;;16.01;57.78
30302;BME280;17111;52.130;5.028;2024-02-21T08:18:39;101760.06;;;16.02;58.79
30302;BME280;17111;52.130;5.028;2024-02-21T08:21:06;101760.94;;;16.02;58.45
30302;BME280;17111;52.130;5.028;2024-02-21T08:23:33;101750.22;;;16.02;57.81
30302;BME280;17111;52.130;5.028;2024-02-21T08:26:03;101740.50;;;16.01;58.46
30302;BME280;17111;52.130;5.028;2024-02-21T08:28:30;101735.88;;;16.03;58.43
30302;BME280;17111;52.130;5.028;2024-02-21T08:30:57;101735.03;;;16.03;57.92
30302;BME280;17111;52.130;5.028;2024-02-21T08:33:24;101735.88;;;16.03;58.41
30302;BME280;17111;52.130;5.028;2024-02-21T08:35:52;101739.44;;;16.04;57.86
30302;BME280;17111;52.130;5.028;2024-02-21T08:38:18;101735.88;;;16.03;57.64
30302;BME280;17111;52.130;5.028;2024-02-21T08:40:45;101727.00;;;16.03;57.71
30302;BME280;17111;52.130;5.028;2024-02-21T08:43:11;101727.00;;;16.03;57.58
30302;BME280;17111;52.130;5.028;2024-02-21T08:45:38;101716.31;;;16.03;57.49
30302;BME280;17111;52.130;5.028;2024-02-21T08:48:05;101716.31;;;16.03;58.20
30302;BME280;17111;52.130;5.028;2024-02-21T08:50:32;101705.63;;;16.03;57.38
30302;BME280;17111;52.130;5.028;2024-02-21T08:52:59;101710.13;;;16.02;58.12
30302;BME280;17111;52.130;5.028;2024-02-21T08:55:26;101713.63;;;16.03;58.04
30302;BME280;17111;52.130;5.028;2024-02-21T08:57:52;101700.41;;;16.01;58.00
30302;BME280;17111;52.130;5.028;2024-02-21T09:00:19;101704.78;;;16.02;57.88
30302;BME280;17111;52.130;5.028;2024-02-21T09:02:50;101703.06;;;16.01;57.59
30302;BME280;17111;52.130;5.028;2024-02-21T09:05:17;101702.94;;;16.03;57.70
30302;BME280;17111;52.130;5.028;2024-02-21T09:07:44;101694.06;;;16.02;57.80
30302;BME280;17111;52.130;5.028;2024-02-21T09:10:10;101694.06;;;16.02;57.46
30302;BME280;17111;52.130;5.028;2024-02-21T09:12:37;101692.25;;;16.03;57.68
30302;BME280;17111;52.130;5.028;2024-02-21T09:15:04;101687.88;;;16.02;57.38
30302;BME280;17111;52.130;5.028;2024-02-21T09:17:32;101683.38;;;16.02;57.52
30302;BME280;17111;52.130;5.028;2024-02-21T09:19:58;101677.19;;;16.02;57.30
30302;BME280;17111;52.130;5.028;2024-02-21T09:22:29;101669.16;;;16.02;58.02
30302;BME280;17111;52.130;5.028;2024-02-21T09:24:57;101664.78;;;16.01;57.91
30302;BME280;17111;52.130;5.028;2024-02-21T09:27:24;101662.00;;;16.02;57.28
30302;BME280;17111;52.130;5.028;2024-02-21T09:29:50;101650.44;;;16.02;57.71
30302;BME280;17111;52.130;5.028;2024-02-21T09:32:18;101647.78;;;16.02;57.67
30302;BME280;17111;52.130;5.028;2024-02-21T09:34:45;101637.06;;;16.02;56.97
30302;BME280;17111;52.130;5.028;2024-02-21T09:37:12;101636.09;;;16.03;57.88
30302;BME280;17111;52.130;5.028;2024-02-21T09:39:38;101626.38;;;16.02;57.68
30302;BME280;17111;52.130;5.028;2024-02-21T09:42:06;101622.72;;;16.03;56.96
30302;BME280;17111;52.130;5.028;2024-02-21T09:44:39;101614.72;;;16.03;57.54
30302;BME280;17111;52.130;5.028;2024-02-21T09:47:33;101608.50;;;16.02;56.97
30302;BME280;17111;52.130;5.028;2024-02-21T09:50:06;101588.72;;;16.05;57.56
30302;BME280;17111;52.130;5.028;2024-02-21T09:52:35;101574.34;;;16.06;57.52
30302;BME280;17111;52.130;5.028;2024-02-21T09:55:03;101572.53;;;16.07;57.86
30302;BME280;17111;52.130;5.028;2024-02-21T09:57:31;101560.00;;;16.07;57.08
30302;BME280;17111;52.130;5.028;2024-02-21T09:59:58;101558.19;;;16.08;57.07
30302;BME280;17111;52.130;5.028;2024-02-21T10:02:25;101559.06;;;16.08;56.94
30302;BME280;17111;52.130;5.028;2024-02-21T10:04:52;101553.56;;;16.10;57.82
30302;BME280;17111;52.130;5.028;2024-02-21T10:07:19;101540.06;;;16.11;57.75
30302;BME280;17111;52.130;5.028;2024-02-21T10:09:49;101536.44;;;16.12;57.41
30302;BME280;17111;52.130;5.028;2024-02-21T10:12:16;101536.31;;;16.14;57.61
30302;BME280;17111;52.130;5.028;2024-02-21T10:14:45;101535.31;;;16.15;57.94
30302;BME280;17111;52.130;5.028;2024-02-21T10:17:16;101534.47;;;16.14;57.68
30302;BME280;17111;52.130;5.028;2024-02-21T10:19:45;101528.03;;;16.17;57.44
30302;BME280;17111;52.130;5.028;2024-02-21T10:22:15;101527.06;;;16.18;56.58
30302;BME280;17111;52.130;5.028;2024-02-21T10:24:42;101513.53;;;16.19;57.19
30302;BME280;17111;52.130;5.028;2024-02-21T10:27:09;101508.09;;;16.21;57.31
30302;BME280;17111;52.130;5.028;2024-02-21T10:29:38;101498.09;;;16.23;56.95
30302;BME280;17111;52.130;5.028;2024-02-21T10:34:35;101484.72;;;16.23;57.26
30302;BME280;17111;52.130;5.028;2024-02-21T10:37:07;101473.03;;;16.24;57.06
30302;BME280;17111;52.130;5.028;2024-02-21T10:39:35;101469.41;;;16.25;57.06
30302;BME280;17111;52.130;5.028;2024-02-21T10:42:03;101451.53;;;16.25;56.58
30302;BME280;17111;52.130;5.028;2024-02-21T10:44:37;101428.47;;;16.24;56.72
30302;BME280;17111;52.130;5.028;2024-02-21T10:47:08;101419.44;;;16.25;56.56
30302;BME280;17111;52.130;5.028;2024-02-21T10:49:39;101412.25;;;16.26;56.78
30302;BME280;17111;52.130;5.028;2024-02-21T10:52:14;101412.25;;;16.26;56.09
30302;BME280;17111;52.130;5.028;2024-02-21T10:55:03;101473.78;;;16.26;55.65
30302;BME280;17111;52.130;5.028;2024-02-21T10:57:31;101474.63;;;16.26;56.03
30302;BME280;17111;52.130;5.028;2024-02-21T10:59:59;101473.78;;;16.26;56.10
30302;BME280;17111;52.130;5.028;2024-02-21T11:02:26;101473.94;;;16.24;56.03
30302;BME280;17111;52.130;5.028;2024-02-21T11:04:57;101480.13;;;16.25;56.25
30302;BME280;17111;52.130;5.028;2024-02-21T11:07:24;101476.59;;;16.24;55.97
30302;BME280;17111;52.130;5.028;2024-02-21T11:09:52;101467.84;;;16.22;55.82
30302;BME280;17111;52.130;5.028;2024-02-21T11:12:23;101455.44;;;16.21;56.36
30302;BME280;17111;52.130;5.028;2024-02-21T11:14:50;101457.28;;;16.21;56.74
30302;BME280;17111;52.130;5.028;2024-02-21T11:17:20;101457.53;;;16.18;56.15
30302;BME280;17111;52.130;5.028;2024-02-21T11:19:53;101467.38;;;16.17;55.99
30302;BME280;17111;52.130;5.028;2024-02-21T11:22:20;101451.44;;;16.16;56.47
30302;BME280;17111;52.130;5.028;2024-02-21T11:24:49;101451.56;;;16.14;56.50
30302;BME280;17111;52.130;5.028;2024-02-21T11:27:19;101433.00;;;16.13;56.39
30302;BME280;17111;52.130;5.028;2024-02-21T11:29:48;101428.50;;;16.13;55.63
30302;BME280;17111;52.130;5.028;2024-02-21T11:32:19;101414.28;;;16.13;56.13
30302;BME280;17111;52.130;5.028;2024-02-21T11:35:18;101404.66;;;16.10;56.24
30302;BME280;17111;52.130;5.028;2024-02-21T11:37:45;101390.19;;;16.13;55.82
30302;BME280;17111;52.130;5.028;2024-02-21T11:40:13;101387.53;;;16.13;56.23
30302;BME280;17111;52.130;5.028;2024-02-21T11:42:39;101353.59;;;16.13;56.39
30302;BME280;17111;52.130;5.028;2024-02-21T11:45:06;101364.16;;;16.15;56.17
30302;BME280;17111;52.130;5.028;2024-02-21T11:47:35;101345.44;;;16.15;56.55
30302;BME280;17111;52.130;5.028;2024-02-21T11:50:09;101331.97;;;16.16;56.82
30302;BME280;17111;52.130;5.028;2024-02-21T11:52:37;101323.81;;;16.18;55.87
30302;BME280;17111;52.130;5.028;2024-02-21T11:55:03;101322.97;;;16.17;56.13
30302;BME280;17111;52.130;5.028;2024-02-21T11:57:32;101311.13;;;16.20;56.36
30302;BME280;17111;52.130;5.028;2024-02-21T11:59:58;101306.66;;;16.20;56.03
30302;BME280;17111;52.130;5.028;2024-02-21T12:02:29;101299.34;;;16.22;56.45
30302;BME280;17111;52.130;5.028;2024-02-21T12:04:56;101290.31;;;16.23;55.89
30302;BME280;17111;52.130;5.028;2024-02-21T12:07:23;101277.69;;;16.25;55.93
30302;BME280;17111;52.130;5.028;2024-02-21T12:09:51;101284.03;;;16.24;55.63
30302;BME280;17111;52.130;5.028;2024-02-21T12:12:20;101282.03;;;16.26;55.22
30302;BME280;17111;52.130;5.028;2024-02-21T12:14:56;101272.34;;;16.25;55.42
30302;BME280;17111;52.130;5.028;2024-02-21T12:17:26;101260.50;;;16.28;55.68
30302;BME280;17111;52.130;5.028;2024-02-21T12:19:53;101260.50;;;16.28;55.28
30302;BME280;17111;52.130;5.028;2024-02-21T12:22:19;101250.69;;;16.28;55.41
30302;BME280;17111;52.130;5.028;2024-02-21T12:24:46;101236.31;;;16.29;55.44
30302;BME280;17111;52.130;5.028;2024-02-21T12:27:14;101239.69;;;16.32;55.57
30302;BME280;17111;52.130;5.028;2024-02-21T12:29:41;101231.66;;;16.32;55.32
30302;BME280;17111;52.130;5.028;2024-02-21T12:32:07;101220.13;;;16.31;55.88
30302;BME280;17111;52.130;5.028;2024-02-21T12:34:34;101209.31;;;16.33;55.71
30302;BME280;17111;52.130;5.028;2024-02-21T12:37:18;101194.94;;;16.34;55.17
30302;BME280;17111;52.130;5.028;2024-02-21T12:39:47;101193.97;;;16.35;55.62
30302;BME280;17111;52.130;5.028;2024-02-21T12:42:13;101178.06;;;16.33;55.24
30302;BME280;17111;52.130;5.028;2024-02-21T12:44:40;101174.41;;;16.34;55.43
30302;BME280;17111;52.130;5.028;2024-02-21T12:47:07;101170.03;;;16.33;55.12
30302;BME280;17111;52.130;5.028;2024-02-21T12:49:34;101168.19;;;16.34;55.36
30302;BME280;17111;52.130;5.028;2024-02-21T12:52:02;101158.34;;;16.34;55.25
30302;BME280;17111;52.130;5.028;2024-02-21T12:54:30;101150.31;;;16.34;55.55